»·PEaware :: N861SL KTOA-KRNM

N861SL :: KTOA-KRNM

FLIGHT INFORMATION

Flight Status: Arrived
Operator: Privately registered:
United States
More flights under this callsign
Pilot: Kevin C. (31819)
Aircraft: COLUMBIA 400
(COL4)
More flights by this aircraft type
Origin: KTOA Zamperini
United States
Destination: KRNM Ramona
United States
More flights between these airports :: More routes between these airports
Route: LIMBO V64 V363 DANAH V23 OCN V208 JLI
File this flight plan on PilotEdge
Remarks:
Altitude:
(Current/Filed)
5,000ft
Speed:
(Current/Filed)
170kts
Departed: 05-Nov-20 03:58 PM
Arrived: 05-Nov-20 04:39 PM
Distance/Time
Traveled:
4nm/0:40
Distance/Time
To Go:
Arrived

Flight Plot

Page will automatically refresh every two minutes.


Map Options




Map Legend


Flown Route
Filed Route
Departure Airport
Arrival Airport
Navaid (VOR, NDB)
Fix

Horizontal Profiles

Position Reports

Time Latitude Longitude Heading Altitude Ground
Speed
05-Nov-20 15:20 33.801075 -118.340641 218 106ft 0kts
05-Nov-20 15:21 33.801075 -118.340641 218 106ft 0kts
05-Nov-20 15:22 33.801075 -118.340641 218 106ft 0kts
05-Nov-20 15:23 33.801075 -118.340641 218 106ft 0kts
05-Nov-20 15:24 33.801075 -118.340641 218 106ft 0kts
05-Nov-20 15:25 33.801075 -118.340641 218 106ft 0kts
05-Nov-20 15:26 33.801075 -118.340641 218 106ft 0kts
05-Nov-20 15:28 33.801075 -118.340641 218 106ft 0kts
05-Nov-20 15:29 33.801075 -118.340641 218 106ft 0kts
05-Nov-20 15:30 33.801075 -118.340641 218 106ft 0kts
05-Nov-20 15:31 33.801075 -118.340641 218 106ft 0kts
05-Nov-20 15:32 33.801075 -118.340641 218 106ft 0kts
05-Nov-20 15:33 33.801075 -118.340641 218 106ft 0kts
05-Nov-20 15:34 33.801075 -118.340641 218 106ft 0kts
05-Nov-20 15:35 33.801075 -118.340641 218 106ft 0kts
05-Nov-20 15:36 33.801075 -118.340641 218 106ft 0kts
05-Nov-20 15:37 33.801075 -118.340641 218 106ft 0kts
05-Nov-20 15:38 33.801075 -118.340641 218 106ft 0kts
05-Nov-20 15:39 33.801075 -118.340641 218 106ft 0kts
05-Nov-20 15:40 33.801075 -118.340641 218 106ft 0kts
05-Nov-20 15:41 33.801075 -118.340641 218 106ft 0kts
05-Nov-20 15:42 33.801075 -118.340641 218 106ft 0kts
05-Nov-20 15:43 33.801075 -118.340641 218 106ft 0kts
05-Nov-20 15:44 33.801075 -118.340641 218 106ft 0kts
05-Nov-20 15:45 33.801075 -118.340641 218 106ft 0kts
05-Nov-20 15:46 33.801075 -118.340641 218 106ft 0kts
05-Nov-20 15:46 33.801075 -118.340641 218 106ft 0kts
05-Nov-20 15:48 33.801075 -118.340641 218 106ft 0kts
05-Nov-20 15:48 33.801075 -118.340641 218 106ft 0kts
05-Nov-20 15:50 33.801075 -118.340641 218 106ft 0kts
05-Nov-20 15:50 33.801075 -118.340641 218 106ft 0kts
05-Nov-20 15:51 33.801075 -118.340641 218 106ft 0kts
05-Nov-20 15:52 33.801013 -118.339624 51 104ft 2kts
05-Nov-20 15:53 33.798253 -118.334776 125 105ft 34kts
05-Nov-20 15:54 33.798936 -118.333509 12 101ft 0kts
05-Nov-20 15:55 33.798936 -118.333509 12 101ft 0kts
05-Nov-20 15:56 33.800028 -118.333551 309 99ft 18kts
05-Nov-20 15:57 33.814950 -118.357729 304 1302ft 105kts
05-Nov-20 15:58 33.831502 -118.383272 307 3019ft 109kts
05-Nov-20 15:59 33.855489 -118.418619 309 3613ft 145kts
05-Nov-20 16:00 33.867885 -118.453965 224 5000ft 133kts
05-Nov-20 16:01 33.828831 -118.445179 180 5040ft 165kts
05-Nov-20 16:02 33.783725 -118.445715 183 4871ft 172kts
05-Nov-20 16:03 33.744396 -118.434452 99 5040ft 164kts
05-Nov-20 16:04 33.754267 -118.382211 76 5290ft 157kts
05-Nov-20 16:05 33.765441 -118.328771 81 5254ft 157kts
05-Nov-20 16:06 33.772248 -118.274312 83 5168ft 162kts
05-Nov-20 16:07 33.774576 -118.220084 84 5278ft 161kts
05-Nov-20 16:08 33.777002 -118.167470 81 5025ft 194kts
05-Nov-20 16:09 33.781013 -118.100486 90 5025ft 214kts
05-Nov-20 16:10 33.780977 -118.030221 100 4502ft 235kts
05-Nov-20 16:11 33.772626 -117.961287 94 4954ft 210kts
05-Nov-20 16:12 33.772438 -117.891312 91 4845ft 217kts
05-Nov-20 16:13 33.766298 -117.823050 102 5305ft 204kts
05-Nov-20 16:14 33.750851 -117.759430 134 4924ft 232kts
05-Nov-20 16:15 33.691031 -117.743913 166 4713ft 202kts
05-Nov-20 16:16 33.634849 -117.727592 170 4548ft 211kts
05-Nov-20 16:17 33.577287 -117.718502 164 4829ft 197kts
05-Nov-20 16:18 33.519741 -117.706589 172 4425ft 216kts
05-Nov-20 16:19 33.461636 -117.697955 155 4052ft 206kts
05-Nov-20 16:20 33.419065 -117.662577 150 4801ft 192kts
05-Nov-20 16:21 33.385273 -117.608029 125 4554ft 209kts
05-Nov-20 16:22 33.347161 -117.555166 127 4606ft 204kts
05-Nov-20 16:23 33.309799 -117.504088 133 4775ft 208kts
05-Nov-20 16:24 33.270481 -117.451446 133 4694ft 209kts
05-Nov-20 16:25 33.235084 -117.398303 110 5211ft 191kts
05-Nov-20 16:26 33.219142 -117.344680 142 4228ft 150kts
05-Nov-20 16:27 33.191977 -117.292342 115 4687ft 164kts
05-Nov-20 16:28 33.170625 -117.237834 115 4798ft 216kts
05-Nov-20 16:29 33.147016 -117.173272 115 3904ft 206kts
05-Nov-20 16:30 33.121467 -117.112217 114 4076ft 204kts
05-Nov-20 16:31 33.097395 -117.048801 109 4020ft 204kts
05-Nov-20 16:32 33.074383 -116.984177 112 3565ft 222kts
05-Nov-20 16:33 33.052266 -116.916267 112 3052ft 222kts
05-Nov-20 16:34 33.041844 -116.861083 102 2459ft 177kts
05-Nov-20 16:35 33.022263 -116.833758 272 2390ft 141kts
05-Nov-20 16:36 33.033823 -116.882851 279 2108ft 91kts
05-Nov-20 16:37 33.038388 -116.909514 282 1391ft 59kts
05-Nov-20 16:38 33.039493 -116.913080 97 1391ft 0kts
05-Nov-20 16:39 33.801075 -118.340641 218 106ft 0kts
05-Nov-20 16:40 33.688804 -118.165011 307 3021ft 70kts
05-Nov-20 16:41 33.706745 -118.193767 306 2339ft 102kts
05-Nov-20 16:42 33.723470 -118.219036 303 1970ft 93kts
05-Nov-20 16:43 33.740704 -118.245730 307 1682ft 112kts
05-Nov-20 16:44 33.759059 -118.273035 309 1658ft 97kts
05-Nov-20 16:45 33.775623 -118.296827 320 1071ft 92kts
05-Nov-20 16:46 33.792187 -118.321151 313 339ft 89kts
05-Nov-20 16:47 33.688456 -118.164484 308 3080ft 57kts
05-Nov-20 16:48 33.696532 -118.176870 302 2371ft 113kts
05-Nov-20 16:49 33.708360 -118.197123 308 2213ft 94kts
05-Nov-20 16:50 33.725056 -118.221111 308 2012ft 92kts
05-Nov-20 16:51 33.741171 -118.245307 310 1929ft 93kts
05-Nov-20 16:52 33.757067 -118.268918 310 1686ft 88kts

Navigation Log

Ident Type
Flight plan parsing failed, navigation log unavailable